LICC/CTA METAR and TAF weather

Enter ICAO airport designator
Station Type Date Time Source
LICC METAR 2024/04/17 19:20 UTC NOAA

LICC 171920Z 26014KT CAVOK 16/02 Q1007


Station Type Date Time Source
LICC Decoded METAR 2024/04/17 19:20 UTC NOAA

Catania / Fontanarossa, Italy (LICC) 37-28N 015-03E 17M
Apr 17, 2024 - 03:20 PM EDT / 2024.04.17 1920 UTC
Wind: from the W (260 degrees) at 16 MPH (14 KT):0
Visibility: greater than 7 mile(s):0
Temperature: 60 F (16 C)
Dew Point: 35 F (2 C)
Relative Humidity: 38%
Pressure (altimeter): 29.74 in. Hg (1007 hPa)
ob: LICC 171920Z 26014KT CAVOK 16/02 Q1007
cycle: 19

Station Type Date Time Source
LICC TAF 2024/04/17 18:27 UTC NOAA